createdAt,value
2022-12-15T00:00:58.007Z,67.01
2022-12-15T00:03:45.947Z,66.73
2022-12-15T00:06:34.455Z,66.59
2022-12-15T00:09:27.659Z,66.49
2022-12-15T00:12:18.459Z,65.95
2022-12-15T00:15:06.158Z,65.94
2022-12-15T00:17:54.026Z,65.86
2022-12-15T00:20:42.512Z,66.18
2022-12-15T00:23:32.295Z,66.72
2022-12-15T00:26:19.950Z,67.21
2022-12-15T00:29:07.748Z,66.72
2022-12-15T00:31:55.337Z,67.04
2022-12-15T00:34:42.980Z,66.76
2022-12-15T00:37:30.590Z,66.87
2022-12-15T00:40:00.189Z,66.79
2022-12-15T00:42:33.176Z,66.98
2022-12-15T00:45:03.300Z,67.43
2022-12-15T00:47:34.807Z,67.60
2022-12-15T00:50:22.858Z,68.22
2022-12-15T00:53:11.255Z,69.05
2022-12-15T00:55:58.784Z,69.49
2022-12-15T00:58:46.923Z,69.25
2022-12-15T01:01:35.011Z,68.69
2022-12-15T01:04:23.134Z,68.73
2022-12-15T01:07:10.689Z,68.44
2022-12-15T01:09:58.374Z,68.38
2022-12-15T01:12:46.165Z,68.49
2022-12-15T01:15:33.880Z,68.45
2022-12-15T01:18:21.856Z,68.82
2022-12-15T01:21:02.368Z,68.97
2022-12-15T01:23:33.120Z,69.16
2022-12-15T01:26:03.707Z,69.13
2022-12-15T01:28:33.374Z,68.90
2022-12-15T01:31:03.001Z,69.54
2022-12-15T01:33:32.684Z,69.08
2022-12-15T01:36:03.433Z,69.86
2022-12-15T01:38:33.042Z,69.53
2022-12-15T01:41:09.111Z,69.77
2022-12-15T01:43:41.198Z,70.51
2022-12-15T01:46:18.818Z,70.52
2022-12-15T01:48:59.011Z,70.34
2022-12-15T01:51:37.255Z,69.66
2022-12-15T01:54:10.023Z,69.71
2022-12-15T01:56:43.943Z,69.75
2022-12-15T01:59:17.689Z,69.65
2022-12-15T02:01:50.027Z,69.83
2022-12-15T02:04:24.968Z,70.45
2022-12-15T02:06:54.815Z,70.94
2022-12-15T02:09:28.115Z,70.82
2022-12-15T02:12:03.574Z,71.25
2022-12-15T02:15:02.109Z,71.20
2022-12-15T02:17:47.443Z,70.91
2022-12-15T02:20:19.787Z,71.31
2022-12-15T02:23:25.904Z,71.10
2022-12-15T02:26:32.397Z,71.38
2022-12-15T02:29:29.324Z,71.39
2022-12-15T02:32:10.522Z,71.65
2022-12-15T02:35:01.162Z,71.78
2022-12-15T02:37:39.851Z,71.28
2022-12-15T02:40:11.561Z,71.16
2022-12-15T02:42:47.236Z,71.11
2022-12-15T02:45:23.551Z,70.06
2022-12-15T02:48:17.733Z,69.70
2022-12-15T02:51:22.498Z,69.99
2022-12-15T02:54:07.380Z,69.50
2022-12-15T02:56:56.519Z,69.23
2022-12-15T02:59:47.129Z,68.51
2022-12-15T03:02:17.341Z,68.71
2022-12-15T03:04:47.180Z,68.64
2022-12-15T03:07:16.665Z,68.70
2022-12-15T03:09:45.960Z,68.87
2022-12-15T03:12:17.664Z,68.66
2022-12-15T03:14:47.108Z,68.42
2022-12-15T03:17:16.573Z,68.23
2022-12-15T03:19:46.488Z,68.27
2022-12-15T03:22:19.123Z,67.93
2022-12-15T03:24:49.596Z,67.56
2022-12-15T03:27:19.153Z,67.80
2022-12-15T03:29:48.586Z,67.63
2022-12-15T03:32:18.122Z,67.80
2022-12-15T03:34:47.640Z,67.65
2022-12-15T03:37:17.413Z,67.31
2022-12-15T03:39:47.007Z,67.56
2022-12-15T03:42:36.470Z,67.83
2022-12-15T03:45:06.810Z,67.35
2022-12-15T03:47:36.349Z,66.32
2022-12-15T03:50:06.296Z,66.23
2022-12-15T03:52:36.004Z,66.04
2022-12-15T03:55:06.411Z,65.51
2022-12-15T03:57:36.368Z,64.88
2022-12-15T04:00:08.231Z,64.33
2022-12-15T04:02:44.584Z,64.21
2022-12-15T04:05:24.213Z,63.89
2022-12-15T04:07:54.918Z,64.08
2022-12-15T04:10:31.888Z,63.79
2022-12-15T04:13:09.860Z,63.10
2022-12-15T04:15:41.743Z,62.38
2022-12-15T04:18:13.089Z,61.96
2022-12-15T04:20:42.722Z,61.30
2022-12-15T04:23:12.318Z,60.57
2022-12-15T04:26:00.284Z,60.55
2022-12-15T04:28:48.196Z,59.36
2022-12-15T04:31:45.231Z,59.33
2022-12-15T04:34:39.861Z,58.20
2022-12-15T04:37:31.326Z,57.99
2022-12-15T04:40:20.207Z,56.87
2022-12-15T04:43:08.554Z,56.44
2022-12-15T04:45:56.723Z,55.84
2022-12-15T04:48:44.713Z,56.25
2022-12-15T04:51:32.594Z,55.26
2022-12-15T04:54:20.545Z,55.34
2022-12-15T04:57:08.715Z,54.70
2022-12-15T04:59:56.653Z,52.51
2022-12-15T05:02:45.028Z,52.40
2022-12-15T05:05:32.789Z,52.27
2022-12-15T05:08:20.989Z,50.66
2022-12-15T05:11:08.656Z,50.67
2022-12-15T05:13:56.457Z,50.13
2022-12-15T05:16:44.383Z,50.56
2022-12-15T05:19:32.433Z,49.12
2022-12-15T05:22:20.163Z,47.94
2022-12-15T05:25:08.026Z,48.12
2022-12-15T05:27:55.891Z,48.12
2022-12-15T05:30:43.522Z,46.22
2022-12-15T05:33:12.953Z,47.48
2022-12-15T05:35:42.345Z,47.92
2022-12-15T05:38:11.779Z,46.45
2022-12-15T05:40:41.427Z,47.34
2022-12-15T05:43:11.021Z,46.28
2022-12-15T05:45:40.847Z,46.51
2022-12-15T05:48:11.170Z,45.87
2022-12-15T05:50:40.944Z,44.90
2022-12-15T05:53:10.381Z,44.54
2022-12-15T05:55:40.213Z,44.08
2022-12-15T05:58:09.658Z,42.80
2022-12-15T06:00:39.574Z,41.28
2022-12-15T06:03:09.110Z,41.01
2022-12-15T06:05:38.647Z,40.33
2022-12-15T06:08:08.598Z,40.08
2022-12-15T06:10:38.038Z,39.64
2022-12-15T06:13:07.539Z,38.91
2022-12-15T06:15:37.441Z,37.47
2022-12-15T06:18:07.132Z,37.34
2022-12-15T06:20:36.683Z,37.62
2022-12-15T06:23:06.499Z,36.17
2022-12-15T06:25:36.295Z,35.72
2022-12-15T06:28:09.241Z,36.20
2022-12-15T06:30:40.249Z,35.50
2022-12-15T06:33:10.041Z,35.34
2022-12-15T06:35:39.802Z,35.44
2022-12-15T06:38:09.840Z,34.88
2022-12-15T06:40:40.698Z,33.25
2022-12-15T06:43:10.602Z,33.46
2022-12-15T06:45:40.273Z,33.31
2022-12-15T06:48:09.943Z,33.53
2022-12-15T06:50:39.910Z,33.07
2022-12-15T06:53:09.580Z,32.95
2022-12-15T06:55:39.554Z,33.35
2022-12-15T06:58:09.628Z,33.46
2022-12-15T07:00:39.134Z,33.15
2022-12-15T07:03:20.713Z,33.23
2022-12-15T07:05:50.563Z,32.85
2022-12-15T07:08:22.533Z,33.18
2022-12-15T07:10:55.450Z,33.70
2022-12-15T07:13:25.456Z,33.22
2022-12-15T07:15:54.903Z,33.92
2022-12-15T07:18:24.496Z,34.07
2022-12-15T07:20:55.435Z,33.57
2022-12-15T07:23:45.956Z,34.37
2022-12-15T07:26:15.027Z,34.01
2022-12-15T07:28:46.022Z,33.65
2022-12-15T07:31:16.762Z,33.39
2022-12-15T07:33:48.744Z,33.03
2022-12-15T07:36:19.489Z,32.77
2022-12-15T07:38:50.434Z,32.50
2022-12-15T07:41:22.054Z,31.65
2022-12-15T07:43:51.758Z,31.97
2022-12-15T07:46:21.504Z,32.66
2022-12-15T07:48:51.615Z,32.74
2022-12-15T07:51:22.103Z,32.76
2022-12-15T07:53:52.635Z,33.03
2022-12-15T07:56:22.258Z,32.89
2022-12-15T07:58:53.041Z,32.57
2022-12-15T08:01:23.230Z,32.47
2022-12-15T08:03:52.889Z,32.14
2022-12-15T08:06:22.614Z,32.66
2022-12-15T08:08:53.182Z,32.37
2022-12-15T08:11:27.413Z,32.20
2022-12-15T08:14:06.865Z,32.44
2022-12-15T08:16:40.798Z,31.75
2022-12-15T08:19:14.768Z,31.08
2022-12-15T08:21:49.867Z,31.75
2022-12-15T08:24:20.619Z,32.20
2022-12-15T08:26:51.329Z,32.84
2022-12-15T08:32:10.896Z,31.76
2022-12-15T08:34:40.913Z,30.75
2022-12-15T08:37:10.629Z,30.70
2022-12-15T08:39:40.283Z,31.15
2022-12-15T08:42:10.040Z,31.09
2022-12-15T08:44:40.018Z,32.44
2022-12-15T08:47:09.755Z,31.59
2022-12-15T08:49:39.509Z,32.01
2022-12-15T08:52:09.217Z,31.87
2022-12-15T08:54:39.003Z,32.60
2022-12-15T08:57:08.514Z,32.98
2022-12-15T08:59:38.045Z,33.06
2022-12-15T09:02:08.265Z,32.66
2022-12-15T09:04:37.782Z,32.86
2022-12-15T09:07:07.569Z,33.59
2022-12-15T09:09:37.127Z,33.08
2022-12-15T09:12:07.247Z,33.43
2022-12-15T09:14:36.870Z,33.25
2022-12-15T09:17:07.661Z,33.98
2022-12-15T09:19:38.635Z,33.68
2022-12-15T09:22:09.196Z,34.42
2022-12-15T09:24:38.868Z,34.49
2022-12-15T09:27:08.767Z,34.50
2022-12-15T09:29:38.607Z,34.71
2022-12-15T09:32:13.827Z,35.39
2022-12-15T09:34:44.722Z,35.38
2022-12-15T09:37:19.244Z,35.64
2022-12-15T09:39:50.819Z,35.46
2022-12-15T09:42:29.929Z,35.32
2022-12-15T09:45:16.772Z,35.47
2022-12-15T09:47:58.848Z,35.37
2022-12-15T09:50:35.977Z,35.23
2022-12-15T09:53:23.304Z,35.34
2022-12-15T09:56:05.087Z,35.01
2022-12-15T09:59:05.068Z,35.23
2022-12-15T10:01:49.279Z,34.58
2022-12-15T10:04:45.271Z,33.57
2022-12-15T10:07:30.884Z,32.37
2022-12-15T10:10:00.825Z,31.03
2022-12-15T10:12:39.597Z,30.93
2022-12-15T10:15:22.269Z,30.98
2022-12-15T10:18:08.083Z,31.12
2022-12-15T10:20:38.362Z,32.03
2022-12-15T10:23:15.695Z,32.18
2022-12-15T10:26:02.945Z,32.45
2022-12-15T10:29:00.243Z,32.83
2022-12-15T10:31:54.269Z,32.69
2022-12-15T10:34:36.643Z,33.03
2022-12-15T10:37:07.413Z,33.48
2022-12-15T10:39:43.202Z,34.04
2022-12-15T10:42:20.862Z,33.38
2022-12-15T10:44:56.469Z,34.32
2022-12-15T10:47:32.554Z,35.07
2022-12-15T10:50:25.433Z,34.27
2022-12-15T10:52:58.706Z,34.35
2022-12-15T10:58:46.952Z,35.01
2022-12-15T11:01:26.166Z,35.32
2022-12-15T11:03:57.628Z,35.98
2022-12-15T11:06:31.227Z,36.21
2022-12-15T11:09:24.182Z,36.46
2022-12-15T11:12:12.861Z,36.80
2022-12-15T11:14:51.745Z,37.59
2022-12-15T11:17:25.226Z,37.68
2022-12-15T11:20:05.025Z,38.21
2022-12-15T11:22:44.215Z,38.54
2022-12-15T11:25:27.458Z,38.29
2022-12-15T11:28:01.754Z,38.99
2022-12-15T11:30:37.636Z,38.98
2022-12-15T11:33:10.037Z,39.53
2022-12-15T11:35:45.151Z,39.63
2022-12-15T11:38:31.074Z,40.25
2022-12-15T11:41:23.969Z,40.29
2022-12-15T11:43:54.351Z,40.84
2022-12-15T11:47:03.602Z,41.12
2022-12-15T11:49:41.368Z,41.58
2022-12-15T11:52:37.932Z,42.12
2022-12-15T11:55:41.212Z,42.62
2022-12-15T11:58:52.764Z,43.03
2022-12-15T12:01:55.533Z,43.57
2022-12-15T12:04:55.714Z,44.55
2022-12-15T12:07:41.704Z,45.03
2022-12-15T12:10:40.224Z,45.58
2022-12-15T12:13:33.308Z,46.30
2022-12-15T12:16:05.303Z,46.53
2022-12-15T12:18:43.152Z,47.17
2022-12-15T12:21:17.356Z,47.31
2022-12-15T12:23:52.724Z,47.28
2022-12-15T12:26:33.612Z,47.52
2022-12-15T12:29:27.444Z,47.92
2022-12-15T12:32:04.525Z,48.92
2022-12-15T12:34:50.962Z,49.67
2022-12-15T12:37:24.113Z,49.83
2022-12-15T12:39:55.311Z,50.22
2022-12-15T12:42:47.901Z,50.07
2022-12-15T12:45:23.523Z,50.36
2022-12-15T12:47:57.697Z,51.37
2022-12-15T12:50:31.435Z,52.01
2022-12-15T12:53:03.626Z,52.48
2022-12-15T12:55:44.183Z,51.74
2022-12-15T12:58:36.053Z,52.91
2022-12-15T13:01:28.705Z,52.48
2022-12-15T13:04:14.148Z,52.85
2022-12-15T13:06:44.073Z,53.06
2022-12-15T13:09:20.261Z,54.19
2022-12-15T13:11:52.915Z,55.30
2022-12-15T13:14:46.587Z,55.54
2022-12-15T13:17:30.324Z,54.63
2022-12-15T13:20:03.056Z,54.86
2022-12-15T13:22:38.580Z,55.56
2022-12-15T13:25:37.850Z,56.09
2022-12-15T13:28:19.335Z,56.73
2022-12-15T13:31:30.011Z,57.25
2022-12-15T13:34:27.820Z,57.16
2022-12-15T13:36:59.445Z,57.61
2022-12-15T13:39:33.602Z,57.78
2022-12-15T13:45:06.778Z,58.99
2022-12-15T13:47:36.868Z,59.38
2022-12-15T13:50:21.593Z,58.90
2022-12-15T13:56:05.918Z,59.47
2022-12-15T13:58:44.966Z,59.09
2022-12-15T14:01:33.011Z,59.06
2022-12-15T14:04:19.507Z,59.18
2022-12-15T14:07:02.313Z,59.32
2022-12-15T14:09:34.773Z,58.68
2022-12-15T14:12:07.529Z,59.86
2022-12-15T14:14:44.839Z,59.65
2022-12-15T14:17:19.417Z,59.69
2022-12-15T14:19:52.381Z,61.09
2022-12-15T14:22:29.490Z,61.66
2022-12-15T14:25:14.913Z,61.54
2022-12-15T14:27:53.509Z,62.12
2022-12-15T14:30:35.390Z,62.63
2022-12-15T14:33:15.609Z,63.25
2022-12-15T14:35:56.587Z,62.96
2022-12-15T14:38:32.757Z,63.11
2022-12-15T14:41:05.106Z,62.46
2022-12-15T14:43:39.688Z,61.92
2022-12-15T14:46:21.529Z,61.78
2022-12-15T14:49:06.791Z,61.82
2022-12-15T14:51:53.272Z,61.52
2022-12-15T14:54:40.001Z,61.56
2022-12-15T14:57:21.942Z,61.79
2022-12-15T14:59:55.818Z,61.62
2022-12-15T15:02:27.792Z,61.19
2022-12-15T15:03:04.145Z,34.49
2022-12-15T15:05:06.585Z,60.69
2022-12-15T15:07:39.566Z,60.14
2022-12-15T15:10:31.025Z,61.22
2022-12-15T15:13:01.013Z,60.85
2022-12-15T15:15:39.643Z,60.56
2022-12-15T15:18:17.198Z,61.04
2022-12-15T15:20:59.772Z,60.48
2022-12-15T15:23:33.572Z,60.48
2022-12-15T15:26:06.864Z,61.78
2022-12-15T15:28:42.257Z,61.80
2022-12-15T15:31:28.771Z,62.12
2022-12-15T15:34:00.177Z,61.64
2022-12-15T15:36:44.400Z,61.60
2022-12-15T15:39:19.982Z,61.71
2022-12-15T15:41:50.654Z,62.45
2022-12-15T15:44:20.565Z,62.57
2022-12-15T15:46:56.010Z,62.24
2022-12-15T15:49:28.749Z,62.34
2022-12-15T15:51:59.905Z,62.33
2022-12-15T15:54:37.092Z,62.42
2022-12-15T15:57:06.844Z,62.77
2022-12-15T15:59:38.030Z,62.56
2022-12-15T16:02:11.658Z,63.26
2022-12-15T16:04:43.560Z,62.54
2022-12-15T16:07:32.094Z,63.21
2022-12-15T16:10:02.120Z,62.67
2022-12-15T16:12:46.868Z,63.93
2022-12-15T16:15:20.152Z,63.65
2022-12-15T16:17:50.133Z,63.80
2022-12-15T16:20:22.633Z,63.28
2022-12-15T16:22:53.368Z,63.29
2022-12-15T16:25:50.050Z,64.45
2022-12-15T16:28:25.034Z,64.05
2022-12-15T16:31:02.718Z,63.68
2022-12-15T16:33:34.415Z,63.78
2022-12-15T16:36:24.019Z,63.65
2022-12-15T16:38:55.935Z,64.03
2022-12-15T16:41:28.954Z,64.53
2022-12-15T16:44:02.327Z,64.21
2022-12-15T16:46:32.890Z,63.85
2022-12-15T16:49:06.830Z,63.66
2022-12-15T16:51:44.011Z,64.01
2022-12-15T16:54:28.523Z,64.14
2022-12-15T16:57:01.243Z,64.32
2022-12-15T16:59:33.432Z,63.94
2022-12-15T17:02:30.309Z,64.16
2022-12-15T17:05:01.270Z,63.80
2022-12-15T17:07:32.050Z,63.88
2022-12-15T17:10:03.473Z,63.89
2022-12-15T17:12:34.866Z,63.91
2022-12-15T17:15:20.057Z,63.85
2022-12-15T17:17:54.849Z,64.22
2022-12-15T17:20:31.429Z,64.45
2022-12-15T17:23:09.206Z,64.62
2022-12-15T17:28:38.077Z,65.10
2022-12-15T17:31:14.824Z,64.82
2022-12-15T17:33:49.777Z,64.85
2022-12-15T17:36:26.179Z,64.85
2022-12-15T17:39:04.333Z,65.46
2022-12-15T17:41:58.696Z,65.40
2022-12-15T17:44:34.895Z,66.09
2022-12-15T17:47:09.332Z,66.58
2022-12-15T17:49:43.045Z,66.53
2022-12-15T17:52:29.006Z,66.70
2022-12-15T17:54:59.747Z,66.55
2022-12-15T17:57:32.984Z,66.70
2022-12-15T18:00:05.187Z,66.52
2022-12-15T18:02:35.218Z,66.40
2022-12-15T18:05:06.097Z,66.79
2022-12-15T18:07:35.765Z,66.75
2022-12-15T18:10:05.952Z,67.39
2022-12-15T18:12:37.143Z,67.39
2022-12-15T18:15:20.827Z,68.15
2022-12-15T18:17:51.107Z,68.19
2022-12-15T18:20:21.754Z,68.78
2022-12-15T18:22:52.803Z,68.85
2022-12-15T18:25:29.385Z,68.97
2022-12-15T18:28:02.535Z,68.95
2022-12-15T18:30:32.477Z,69.40
2022-12-15T18:33:02.002Z,69.63
2022-12-15T18:35:45.073Z,69.58
2022-12-15T18:38:23.826Z,69.78
2022-12-15T18:40:59.447Z,69.97
2022-12-15T18:43:34.933Z,69.51
2022-12-15T18:46:04.963Z,69.91
2022-12-15T18:48:38.627Z,69.71
2022-12-15T18:51:18.764Z,69.96
2022-12-15T18:53:50.101Z,70.39
2022-12-15T18:56:22.763Z,70.20
2022-12-15T18:58:52.314Z,70.50
2022-12-15T19:01:22.248Z,70.33
2022-12-15T19:03:52.053Z,70.47
2022-12-15T19:06:26.347Z,70.55
2022-12-15T19:08:56.243Z,70.79
2022-12-15T19:11:32.130Z,70.95
2022-12-15T19:14:03.897Z,71.04
2022-12-15T19:16:53.215Z,71.24
2022-12-15T19:19:41.625Z,71.27
2022-12-15T19:22:31.606Z,71.08
2022-12-15T19:25:03.249Z,71.07
2022-12-15T19:27:33.289Z,71.30
2022-12-15T19:30:03.337Z,71.41
2022-12-15T19:32:32.814Z,71.34
2022-12-15T19:35:05.653Z,71.20
2022-12-15T19:37:37.755Z,71.10
2022-12-15T19:40:18.099Z,71.03
2022-12-15T19:42:49.755Z,71.04
2022-12-15T19:45:25.047Z,70.97
2022-12-15T19:47:55.110Z,70.45
2022-12-15T19:50:27.928Z,70.36
2022-12-15T19:53:01.879Z,70.39
2022-12-15T19:55:37.209Z,70.27
2022-12-15T19:58:32.821Z,70.02
2022-12-15T20:01:13.355Z,69.65
2022-12-15T20:03:48.546Z,69.83
2022-12-15T20:06:21.691Z,69.95
2022-12-15T20:08:51.590Z,69.21
2022-12-15T20:11:27.903Z,69.93
2022-12-15T20:13:57.875Z,69.68
2022-12-15T20:16:27.487Z,69.36
2022-12-15T20:18:57.470Z,68.41
2022-12-15T20:21:32.611Z,69.04
2022-12-15T20:24:08.780Z,68.79
2022-12-15T20:26:40.562Z,68.26
2022-12-15T20:29:25.573Z,68.21
2022-12-15T20:31:56.197Z,68.28
2022-12-15T20:34:26.971Z,67.67
2022-12-15T20:36:56.666Z,68.14
2022-12-15T20:39:32.388Z,67.75
2022-12-15T20:42:02.119Z,67.44
2022-12-15T20:44:31.485Z,67.61
2022-12-15T20:47:00.905Z,67.60
2022-12-15T20:49:30.615Z,67.62
2022-12-15T20:52:00.576Z,67.70
2022-12-15T20:54:30.544Z,67.67
2022-12-15T20:56:59.997Z,67.75
2022-12-15T20:59:29.532Z,67.46
2022-12-15T21:01:59.311Z,67.06
2022-12-15T21:04:31.528Z,67.11
2022-12-15T21:07:01.435Z,67.15
2022-12-15T21:09:31.111Z,67.03
2022-12-15T21:12:04.371Z,67.04
2022-12-15T21:14:37.300Z,66.96
2022-12-15T21:17:07.375Z,67.02
2022-12-15T21:19:36.973Z,67.05
2022-12-15T21:22:07.800Z,66.86
2022-12-15T21:24:37.947Z,66.43
2022-12-15T21:27:11.630Z,67.05
2022-12-15T21:29:43.304Z,67.05
2022-12-15T21:32:16.433Z,66.74
2022-12-15T21:34:46.091Z,66.37
2022-12-15T21:37:46.335Z,66.41
2022-12-15T21:40:21.638Z,66.63
2022-12-15T21:42:52.337Z,66.79
2022-12-15T21:45:24.511Z,66.51
2022-12-15T21:48:12.794Z,67.07
2022-12-15T21:50:46.645Z,67.37
2022-12-15T21:53:18.921Z,67.26
2022-12-15T21:55:48.772Z,67.47
2022-12-15T21:58:25.935Z,67.19
2022-12-15T22:00:56.101Z,67.15
2022-12-15T22:03:25.844Z,67.35
2022-12-15T22:05:55.093Z,67.69
2022-12-15T22:08:25.230Z,67.61
2022-12-15T22:10:56.152Z,67.85
2022-12-15T22:13:26.262Z,68.24
2022-12-15T22:15:55.971Z,68.21
2022-12-15T22:18:25.668Z,68.77
2022-12-15T22:20:55.310Z,68.76
2022-12-15T22:23:24.873Z,68.84
2022-12-15T22:25:57.504Z,69.28
2022-12-15T22:28:30.277Z,69.62
2022-12-15T22:30:59.879Z,69.62
2022-12-15T22:33:30.104Z,69.81
2022-12-15T22:36:00.088Z,70.31
2022-12-15T22:38:29.998Z,70.11
2022-12-15T22:41:01.201Z,70.16
2022-12-15T22:43:42.026Z,70.07
2022-12-15T22:46:14.928Z,70.46
2022-12-15T22:48:48.684Z,70.20
2022-12-15T22:51:20.125Z,70.42
2022-12-15T22:53:50.037Z,70.80
2022-12-15T22:56:35.427Z,70.94
2022-12-15T22:59:10.955Z,70.74
2022-12-15T23:01:40.793Z,70.68
2022-12-15T23:04:10.675Z,70.54
2022-12-15T23:06:41.302Z,70.91
2022-12-15T23:09:11.179Z,71.08
2022-12-15T23:11:40.860Z,70.94
2022-12-15T23:14:15.421Z,71.21
2022-12-15T23:16:47.423Z,71.29
2022-12-15T23:19:25.875Z,71.13
2022-12-15T23:21:55.855Z,70.88
2022-12-15T23:24:25.679Z,71.14
2022-12-15T23:26:55.300Z,71.49
2022-12-15T23:29:25.888Z,70.91
2022-12-15T23:31:55.575Z,70.87
2022-12-15T23:34:25.149Z,70.06
2022-12-15T23:36:54.578Z,69.98
2022-12-15T23:39:24.564Z,68.91
2022-12-15T23:41:54.173Z,67.72
2022-12-15T23:44:24.385Z,67.41
2022-12-15T23:46:54.003Z,66.78
2022-12-15T23:49:23.537Z,66.43
2022-12-15T23:51:53.316Z,66.54
2022-12-15T23:54:24.664Z,66.37
2022-12-15T23:56:54.777Z,66.44
2022-12-15T23:59:24.301Z,65.75
